North Brunswick, New Jersey
Current Conditions -  °F | °C
As of 2:53 PM on Friday 21 Nov 2014 (Local Time) from KSMQ Reporting Station
Clear Clear  
Wind Chill: 29°   Ceiling: Unl
Heat Index: 37°   Visibility: 10mi
Dew Point:   Wind: 12mph
Humidity: 26%   Direction: 300°WNW
Pressure: 30.35"   Gusts: 22mph
Location:  40.45°N, 74.48°W
Report Text: KSMQ 211953Z AUTO 30010G19KT 10SM CLR 03/M15 A3035 RMK AO2 SLP280 T00281150
Loading
Personal Weather Stations






























Interactive Weather Map New forecast layout! Learn more

10-Day Weather Forecast

Advertisements
Track Severe Weather on mobile